createdAt,value
2022-11-10T00:01:08.522Z,81.28
2022-11-10T00:03:36.729Z,80.97
2022-11-10T00:06:04.894Z,80.85
2022-11-10T00:08:31.888Z,81.14
2022-11-10T00:10:58.710Z,81.34
2022-11-10T00:13:31.111Z,81.69
2022-11-10T00:16:21.725Z,82.37
2022-11-10T00:18:48.393Z,81.68
2022-11-10T00:21:16.499Z,82.37
2022-11-10T00:23:43.318Z,82.65
2022-11-10T00:26:18.861Z,83.23
2022-11-10T00:28:45.853Z,82.87
2022-11-10T00:31:13.834Z,83.30
2022-11-10T00:33:42.852Z,83.52
2022-11-10T00:36:10.167Z,84.32
2022-11-10T00:38:36.812Z,84.06
2022-11-10T00:41:04.116Z,84.13
2022-11-10T00:43:30.918Z,84.31
2022-11-10T00:45:57.777Z,84.46
2022-11-10T00:48:24.567Z,84.23
2022-11-10T00:50:51.600Z,83.88
2022-11-10T00:53:18.397Z,83.94
2022-11-10T00:55:45.076Z,84.42
2022-11-10T00:58:11.473Z,84.16
2022-11-10T01:00:37.881Z,84.16
2022-11-10T01:03:04.461Z,84.22
2022-11-10T01:05:31.268Z,84.74
2022-11-10T01:07:59.728Z,84.59
2022-11-10T01:10:26.861Z,84.73
2022-11-10T01:12:53.855Z,84.94
2022-11-10T01:15:26.029Z,85.41
2022-11-10T01:17:55.255Z,85.68
2022-11-10T01:20:21.803Z,85.77
2022-11-10T01:22:48.216Z,85.38
2022-11-10T01:25:14.991Z,86.03
2022-11-10T01:27:41.413Z,85.66
2022-11-10T01:30:08.228Z,85.95
2022-11-10T01:32:34.700Z,85.88
2022-11-10T01:35:01.152Z,85.51
2022-11-10T01:37:27.662Z,85.91
2022-11-10T01:39:54.262Z,86.36
2022-11-10T01:42:29.733Z,86.99
2022-11-10T01:45:24.295Z,86.58
2022-11-10T01:47:53.559Z,86.00
2022-11-10T01:50:22.837Z,86.19
2022-11-10T01:52:53.122Z,85.99
2022-11-10T01:55:20.366Z,85.98
2022-11-10T01:57:46.982Z,86.15
2022-11-10T02:00:13.918Z,86.17
2022-11-10T02:03:13.310Z,86.88
2022-11-10T02:05:39.876Z,86.07
2022-11-10T02:08:07.133Z,86.29
2022-11-10T02:10:33.579Z,86.17
2022-11-10T02:13:00.139Z,86.50
2022-11-10T02:15:26.641Z,86.24
2022-11-10T02:17:53.064Z,86.47
2022-11-10T02:20:21.137Z,86.63
2022-11-10T02:22:47.626Z,86.55
2022-11-10T02:25:19.882Z,86.83
2022-11-10T02:27:46.440Z,86.72
2022-11-10T02:30:13.877Z,86.60
2022-11-10T02:32:40.595Z,86.51
2022-11-10T02:35:07.440Z,86.18
2022-11-10T02:37:33.934Z,86.18
2022-11-10T02:40:00.368Z,86.18
2022-11-10T02:42:26.991Z,85.89
2022-11-10T02:44:53.552Z,85.98
2022-11-10T02:47:19.946Z,86.11
2022-11-10T02:49:46.389Z,86.02
2022-11-10T02:52:12.781Z,86.16
2022-11-10T02:54:39.257Z,86.11
2022-11-10T02:57:05.678Z,86.23
2022-11-10T02:59:32.131Z,86.97
2022-11-10T03:01:58.814Z,87.30
2022-11-10T03:04:25.213Z,87.14
2022-11-10T03:06:51.843Z,86.99
2022-11-10T03:09:18.312Z,87.19
2022-11-10T03:11:44.972Z,86.96
2022-11-10T03:14:11.616Z,86.93
2022-11-10T03:16:38.178Z,87.35
2022-11-10T03:19:04.870Z,86.94
2022-11-10T03:21:31.269Z,87.21
2022-11-10T03:23:57.705Z,87.58
2022-11-10T03:26:24.141Z,87.93
2022-11-10T03:28:50.743Z,88.05
2022-11-10T03:31:17.148Z,88.17
2022-11-10T03:33:43.881Z,88.55
2022-11-10T03:36:10.302Z,88.48
2022-11-10T03:38:36.998Z,89.08
2022-11-10T03:41:18.629Z,88.90
2022-11-10T03:43:46.043Z,89.00
2022-11-10T03:46:12.538Z,89.13
2022-11-10T03:48:38.964Z,89.23
2022-11-10T03:51:05.608Z,89.75
2022-11-10T03:53:32.066Z,89.85
2022-11-10T03:56:02.610Z,90.02
2022-11-10T03:58:29.038Z,89.69
2022-11-10T04:00:56.531Z,89.61
2022-11-10T04:03:23.516Z,89.60
2022-11-10T04:06:08.755Z,89.27
2022-11-10T04:08:53.721Z,89.32
2022-11-10T04:11:39.105Z,89.44
2022-11-10T04:14:24.158Z,89.50
2022-11-10T04:16:50.657Z,89.54
2022-11-10T04:19:17.061Z,89.62
2022-11-10T04:21:46.680Z,89.76
2022-11-10T04:24:13.200Z,89.82
2022-11-10T04:26:40.653Z,90.36
2022-11-10T04:29:11.552Z,90.78
2022-11-10T04:31:41.775Z,90.49
2022-11-10T04:34:09.346Z,90.84
2022-11-10T04:36:37.457Z,90.30
2022-11-10T04:39:04.925Z,90.38
2022-11-10T04:41:31.846Z,90.13
2022-11-10T04:43:59.913Z,90.18
2022-11-10T04:46:32.126Z,90.15
2022-11-10T04:48:58.998Z,89.86
2022-11-10T04:51:30.672Z,89.57
2022-11-10T04:53:57.496Z,89.88
2022-11-10T04:56:25.071Z,89.42
2022-11-10T04:58:51.792Z,89.28
2022-11-10T05:01:21.436Z,89.14
2022-11-10T05:03:48.900Z,88.88
2022-11-10T05:06:15.732Z,88.61
2022-11-10T05:08:43.472Z,88.45
2022-11-10T05:11:10.854Z,88.26
2022-11-10T05:13:37.872Z,87.86
2022-11-10T05:16:05.061Z,88.13
2022-11-10T05:18:31.653Z,88.18
2022-11-10T05:20:58.118Z,88.44
2022-11-10T05:23:39.715Z,87.96
2022-11-10T05:26:13.417Z,87.89
2022-11-10T05:28:41.460Z,87.89
2022-11-10T05:31:09.057Z,87.72
2022-11-10T05:33:36.943Z,87.60
2022-11-10T05:36:04.771Z,87.63
2022-11-10T05:38:31.527Z,87.43
2022-11-10T05:40:58.203Z,87.08
2022-11-10T05:43:25.353Z,87.17
2022-11-10T05:45:52.204Z,86.84
2022-11-10T05:48:18.628Z,86.98
2022-11-10T05:50:45.475Z,87.06
2022-11-10T05:53:12.826Z,86.73
2022-11-10T05:55:39.242Z,86.71
2022-11-10T05:58:06.055Z,86.77
2022-11-10T06:00:32.896Z,87.04
2022-11-10T06:03:16.987Z,87.67
2022-11-10T06:05:43.866Z,86.69
2022-11-10T06:08:11.205Z,86.66
2022-11-10T06:10:38.951Z,86.48
2022-11-10T06:13:05.596Z,86.55
2022-11-10T06:15:32.186Z,86.23
2022-11-10T06:17:58.907Z,86.53
2022-11-10T06:20:26.176Z,86.93
2022-11-10T06:22:59.972Z,87.53
2022-11-10T06:25:28.367Z,87.26
2022-11-10T06:27:54.921Z,87.24
2022-11-10T06:30:21.398Z,88.18
2022-11-10T06:32:47.843Z,88.19
2022-11-10T06:35:14.293Z,88.29
2022-11-10T06:37:40.755Z,88.42
2022-11-10T06:40:09.132Z,89.00
2022-11-10T06:42:35.702Z,88.95
2022-11-10T06:45:02.350Z,88.84
2022-11-10T06:47:30.007Z,88.54
2022-11-10T06:49:56.465Z,88.27
2022-11-10T06:52:23.344Z,88.12
2022-11-10T06:54:49.743Z,87.98
2022-11-10T06:57:16.878Z,87.69
2022-11-10T06:59:43.317Z,87.59
2022-11-10T07:02:16.146Z,88.29
2022-11-10T07:04:42.874Z,88.11
2022-11-10T07:07:10.628Z,88.26
2022-11-10T07:09:37.874Z,87.99
2022-11-10T07:12:05.127Z,88.04
2022-11-10T07:14:31.594Z,88.02
2022-11-10T07:16:58.036Z,88.08
2022-11-10T07:19:24.463Z,88.10
2022-11-10T07:21:50.951Z,88.62
2022-11-10T07:24:17.538Z,88.61
2022-11-10T07:26:43.970Z,88.76
2022-11-10T07:29:10.418Z,88.78
2022-11-10T07:31:36.904Z,88.88
2022-11-10T07:34:03.372Z,89.00
2022-11-10T07:36:30.037Z,88.62
2022-11-10T07:38:56.461Z,88.51
2022-11-10T07:41:22.943Z,88.39
2022-11-10T07:43:49.772Z,88.15
2022-11-10T07:46:16.214Z,87.90
2022-11-10T07:48:42.635Z,87.53
2022-11-10T07:51:09.092Z,87.40
2022-11-10T07:53:35.504Z,87.11
2022-11-10T07:56:01.960Z,86.94
2022-11-10T07:58:32.794Z,86.90
2022-11-10T08:00:59.226Z,86.35
2022-11-10T08:03:26.154Z,86.27
2022-11-10T08:05:52.822Z,85.92
2022-11-10T08:08:19.563Z,85.66
2022-11-10T08:10:45.971Z,85.51
2022-11-10T08:13:13.363Z,85.35
2022-11-10T08:15:40.696Z,85.33
2022-11-10T08:18:07.173Z,85.06
2022-11-10T08:20:34.548Z,85.12
2022-11-10T08:23:03.570Z,84.96
2022-11-10T08:25:35.087Z,84.85
2022-11-10T08:28:04.661Z,84.99
2022-11-10T08:30:31.941Z,84.78
2022-11-10T08:33:01.584Z,85.11
2022-11-10T08:35:30.345Z,84.73
2022-11-10T08:37:56.898Z,84.67
2022-11-10T08:40:27.508Z,84.57
2022-11-10T08:43:01.414Z,84.29
2022-11-10T08:45:28.349Z,83.49
2022-11-10T08:48:03.394Z,83.52
2022-11-10T08:50:30.102Z,83.25
2022-11-10T08:52:57.147Z,83.10
2022-11-10T08:55:23.770Z,82.73
2022-11-10T08:57:50.210Z,82.23
2022-11-10T09:00:17.358Z,82.18
2022-11-10T09:02:43.943Z,81.93
2022-11-10T09:05:10.628Z,81.69
2022-11-10T09:07:45.185Z,82.13
2022-11-10T09:10:13.036Z,81.65
2022-11-10T09:12:40.280Z,81.73
2022-11-10T09:15:08.393Z,81.64
2022-11-10T09:17:34.849Z,81.93
2022-11-10T09:20:01.331Z,81.70
2022-11-10T09:22:28.037Z,81.13
2022-11-10T09:24:54.532Z,80.56
2022-11-10T09:27:21.133Z,80.06
2022-11-10T09:29:47.591Z,79.65
2022-11-10T09:32:14.029Z,79.03
2022-11-10T09:34:40.462Z,78.96
2022-11-10T09:37:07.028Z,78.63
2022-11-10T09:39:33.441Z,79.02
2022-11-10T09:42:00.410Z,78.65
2022-11-10T09:44:38.438Z,79.01
2022-11-10T09:47:42.281Z,79.36
2022-11-10T09:50:07.772Z,78.23
2022-11-10T09:52:37.632Z,78.26
2022-11-10T09:55:07.148Z,78.40
2022-11-10T09:57:33.911Z,77.75
2022-11-10T10:00:00.406Z,77.60
2022-11-10T10:02:33.426Z,77.09
2022-11-10T10:05:31.781Z,77.66
2022-11-10T10:08:02.673Z,76.21
2022-11-10T10:10:43.004Z,76.76
2022-11-10T10:13:09.332Z,75.47
2022-11-10T10:15:49.509Z,75.96
2022-11-10T10:19:00.851Z,75.71
2022-11-10T10:22:01.270Z,75.22
2022-11-10T10:24:30.143Z,74.39
2022-11-10T10:27:00.697Z,74.54
2022-11-10T10:29:37.956Z,74.78
2022-11-10T10:32:04.919Z,74.19
2022-11-10T10:34:34.522Z,74.52
2022-11-10T10:37:01.231Z,75.05
2022-11-10T10:39:44.461Z,75.16
2022-11-10T10:42:35.000Z,74.62
2022-11-10T10:45:26.134Z,74.17
2022-11-10T10:47:55.097Z,73.03
2022-11-10T10:50:35.579Z,72.62
2022-11-10T10:53:16.647Z,71.68
2022-11-10T10:56:07.412Z,71.87
2022-11-10T10:58:48.273Z,71.36
2022-11-10T11:01:18.189Z,72.35
2022-11-10T11:03:44.929Z,71.14
2022-11-10T11:06:13.942Z,71.29
2022-11-10T11:08:59.197Z,71.72
2022-11-10T11:11:38.548Z,72.45
2022-11-10T11:14:19.401Z,71.37
2022-11-10T11:16:51.683Z,71.09
2022-11-10T11:19:21.675Z,71.03
2022-11-10T11:22:16.963Z,71.19
2022-11-10T11:25:05.765Z,71.51
2022-11-10T11:27:44.338Z,70.58
2022-11-10T11:30:15.795Z,70.87
2022-11-10T11:33:03.979Z,70.81
2022-11-10T11:35:46.427Z,70.66
2022-11-10T11:38:16.431Z,70.79
2022-11-10T11:40:47.563Z,71.06
2022-11-10T11:43:36.196Z,70.42
2022-11-10T11:46:18.455Z,70.43
2022-11-10T11:49:17.357Z,70.70
2022-11-10T11:51:55.975Z,70.86
2022-11-10T11:54:54.730Z,71.07
2022-11-10T11:57:40.418Z,70.46
2022-11-10T12:00:14.060Z,70.24
2022-11-10T12:03:10.105Z,69.84
2022-11-10T12:06:13.077Z,69.81
2022-11-10T12:08:47.826Z,70.28
2022-11-10T12:11:51.803Z,70.00
2022-11-10T12:14:32.826Z,69.96
2022-11-10T12:17:16.305Z,69.79
2022-11-10T12:20:21.112Z,69.05
2022-11-10T12:23:07.936Z,68.81
2022-11-10T12:25:49.140Z,68.95
2022-11-10T12:28:42.124Z,69.11
2022-11-10T12:31:15.153Z,69.07
2022-11-10T12:33:47.005Z,69.32
2022-11-10T12:36:16.847Z,69.37
2022-11-10T12:39:00.262Z,69.41
2022-11-10T12:41:42.795Z,69.58
2022-11-10T12:44:22.492Z,69.72
2022-11-10T12:46:52.553Z,69.82
2022-11-10T12:49:37.697Z,69.96
2022-11-10T12:52:19.639Z,70.10
2022-11-10T12:54:47.133Z,70.00
2022-11-10T12:57:21.803Z,70.47
2022-11-10T13:00:15.345Z,70.41
2022-11-10T13:02:46.881Z,70.12
2022-11-10T13:05:40.971Z,70.94
2022-11-10T13:08:25.520Z,70.81
2022-11-10T13:10:55.504Z,70.52
2022-11-10T13:13:23.461Z,70.75
2022-11-10T13:15:53.281Z,70.88
2022-11-10T13:18:24.014Z,70.97
2022-11-10T13:20:53.966Z,70.96
2022-11-10T13:23:33.353Z,70.83
2022-11-10T13:26:01.153Z,70.76
2022-11-10T13:28:46.541Z,71.09
2022-11-10T13:31:39.969Z,71.12
2022-11-10T13:34:09.357Z,70.93
2022-11-10T13:36:41.873Z,71.11
2022-11-10T13:39:20.426Z,71.42
2022-11-10T13:41:50.185Z,71.11
2022-11-10T13:44:42.204Z,71.14
2022-11-10T13:47:08.672Z,70.46
2022-11-10T13:50:02.619Z,70.70
2022-11-10T13:52:50.951Z,70.63
2022-11-10T13:55:42.517Z,70.32
2022-11-10T13:58:23.127Z,70.93
2022-11-10T14:01:15.169Z,70.84
2022-11-10T14:03:47.950Z,70.75
2022-11-10T14:06:48.887Z,70.74
2022-11-10T14:09:39.488Z,70.96
2022-11-10T14:12:20.026Z,70.80
2022-11-10T14:15:00.656Z,70.68
2022-11-10T14:17:32.317Z,70.39
2022-11-10T14:20:00.025Z,70.06
2022-11-10T14:22:34.372Z,70.33
2022-11-10T14:25:06.865Z,70.63
2022-11-10T14:27:36.896Z,70.33
2022-11-10T14:30:21.951Z,70.18
2022-11-10T14:33:17.850Z,70.20
2022-11-10T14:35:53.375Z,70.43
2022-11-10T14:38:26.423Z,70.11
2022-11-10T14:41:02.155Z,70.11
2022-11-10T14:43:38.379Z,70.07
2022-11-10T14:46:07.115Z,69.99
2022-11-10T14:48:36.430Z,69.84
2022-11-10T14:51:08.271Z,70.04
2022-11-10T14:53:37.855Z,69.62
2022-11-10T14:56:07.295Z,69.64
2022-11-10T14:58:42.235Z,69.93
2022-11-10T15:01:24.234Z,69.89
2022-11-10T15:03:50.944Z,69.27
2022-11-10T15:06:17.547Z,69.42
2022-11-10T15:08:44.128Z,69.42
2022-11-10T15:11:33.441Z,69.88
2022-11-10T15:14:00.319Z,69.53
2022-11-10T15:16:27.980Z,69.72
2022-11-10T15:18:57.372Z,69.79
2022-11-10T15:21:33.950Z,70.05
2022-11-10T15:24:05.508Z,70.06
2022-11-10T15:26:38.111Z,70.03
2022-11-10T15:29:04.811Z,69.99
2022-11-10T15:31:33.197Z,70.01
2022-11-10T15:34:02.520Z,70.06
2022-11-10T15:36:32.340Z,69.91
2022-11-10T15:39:06.578Z,70.11
2022-11-10T15:41:34.941Z,69.87
2022-11-10T15:44:22.784Z,70.04
2022-11-10T15:46:53.778Z,69.77
2022-11-10T15:49:24.940Z,69.56
2022-11-10T15:51:54.357Z,69.23
2022-11-10T15:54:23.202Z,69.13
2022-11-10T15:56:49.664Z,69.06
2022-11-10T15:59:16.101Z,69.09
2022-11-10T16:01:42.569Z,69.03
2022-11-10T16:04:10.496Z,68.73
2022-11-10T16:06:38.563Z,68.65
2022-11-10T16:09:06.351Z,68.61
2022-11-10T16:11:35.566Z,68.56
2022-11-10T16:14:03.942Z,68.36
2022-11-10T16:16:31.688Z,68.26
2022-11-10T16:18:58.301Z,68.26
2022-11-10T16:21:26.015Z,68.27
2022-11-10T16:23:53.305Z,68.00
2022-11-10T16:26:23.794Z,68.41
2022-11-10T16:28:50.711Z,68.11
2022-11-10T16:31:19.041Z,68.20
2022-11-10T16:33:46.636Z,68.15
2022-11-10T16:36:24.847Z,68.34
2022-11-10T16:38:52.967Z,68.04
2022-11-10T16:41:19.573Z,67.72
2022-11-10T16:43:46.055Z,68.00
2022-11-10T16:46:17.913Z,68.15
2022-11-10T16:48:46.532Z,67.93
2022-11-10T16:51:14.223Z,67.95
2022-11-10T16:53:41.507Z,67.76
2022-11-10T16:56:16.928Z,68.06
2022-11-10T16:58:43.362Z,67.71
2022-11-10T17:01:19.033Z,68.04
2022-11-10T17:03:49.289Z,67.58
2022-11-10T17:06:16.444Z,67.42
2022-11-10T17:08:45.955Z,67.32
2022-11-10T17:11:12.484Z,67.36
2022-11-10T17:13:38.905Z,67.46
2022-11-10T17:16:10.539Z,67.39
2022-11-10T17:18:37.531Z,67.38
2022-11-10T17:21:06.327Z,67.36
2022-11-10T17:23:35.146Z,67.28
2022-11-10T17:26:02.069Z,67.40
2022-11-10T17:28:28.507Z,67.33
2022-11-10T17:30:55.264Z,67.48
2022-11-10T17:33:22.207Z,67.33
2022-11-10T17:35:52.555Z,67.78
2022-11-10T17:38:26.771Z,67.34
2022-11-10T17:40:54.104Z,67.36
2022-11-10T17:43:21.930Z,67.42
2022-11-10T17:45:48.735Z,67.55
2022-11-10T17:48:15.442Z,67.53
2022-11-10T17:50:43.465Z,67.50
2022-11-10T17:53:28.277Z,67.89
2022-11-10T17:55:55.019Z,67.58
2022-11-10T17:58:21.589Z,67.52
2022-11-10T18:00:48.541Z,67.67
2022-11-10T18:03:17.441Z,67.73
2022-11-10T18:05:44.996Z,67.77
2022-11-10T18:08:13.382Z,67.75
2022-11-10T18:10:50.589Z,68.02
2022-11-10T18:13:18.418Z,67.69
2022-11-10T18:15:46.622Z,67.85
2022-11-10T18:18:15.000Z,67.84
2022-11-10T18:20:41.633Z,67.85
2022-11-10T18:23:11.505Z,67.99
2022-11-10T18:25:42.836Z,68.26
2022-11-10T18:28:12.378Z,67.96
2022-11-10T18:30:39.594Z,68.04
2022-11-10T18:33:07.418Z,68.05
2022-11-10T18:35:37.831Z,68.37
2022-11-10T18:38:05.060Z,68.35
2022-11-10T18:40:31.652Z,68.32
2022-11-10T18:43:02.978Z,68.32
2022-11-10T18:45:32.531Z,68.43
2022-11-10T18:48:03.346Z,68.72
2022-11-10T18:50:30.210Z,68.40
2022-11-10T18:52:56.819Z,68.25
2022-11-10T18:55:23.341Z,68.21
2022-11-10T18:57:49.837Z,68.21
2022-11-10T19:00:16.509Z,68.20
2022-11-10T19:02:43.047Z,68.01
2022-11-10T19:05:09.500Z,68.10
2022-11-10T19:07:36.012Z,68.02
2022-11-10T19:10:02.646Z,68.03
2022-11-10T19:12:29.404Z,67.91
2022-11-10T19:14:55.828Z,67.76
2022-11-10T19:17:22.530Z,67.67
2022-11-10T19:19:54.981Z,67.65
2022-11-10T19:22:22.587Z,67.85
2022-11-10T19:25:07.234Z,67.66
2022-11-10T19:27:35.485Z,67.53
2022-11-10T19:30:01.999Z,67.66
2022-11-10T19:32:29.984Z,67.70
2022-11-10T19:34:56.428Z,67.62
2022-11-10T19:37:22.951Z,67.53
2022-11-10T19:39:49.389Z,67.50
2022-11-10T19:42:15.826Z,67.38
2022-11-10T19:44:42.257Z,67.36
2022-11-10T19:47:08.731Z,67.16
2022-11-10T19:49:38.226Z,66.98
2022-11-10T19:52:04.673Z,67.10
2022-11-10T19:54:31.105Z,66.97
2022-11-10T19:56:57.610Z,67.05
2022-11-10T19:59:24.293Z,67.04
2022-11-10T20:01:50.836Z,66.97
2022-11-10T20:04:17.588Z,66.96
2022-11-10T20:06:44.211Z,66.82
2022-11-10T20:09:10.811Z,66.97
2022-11-10T20:11:37.301Z,66.70
2022-11-10T20:14:05.521Z,66.67
2022-11-10T20:16:31.964Z,66.64
2022-11-10T20:18:58.358Z,66.56
2022-11-10T20:21:24.984Z,66.59
2022-11-10T20:23:53.012Z,66.64
2022-11-10T20:26:19.780Z,66.35
2022-11-10T20:28:46.186Z,66.40
2022-11-10T20:31:20.536Z,66.67
2022-11-10T20:33:48.579Z,66.09
2022-11-10T20:36:25.869Z,66.39
2022-11-10T20:38:53.865Z,66.28
2022-11-10T20:41:22.844Z,66.14
2022-11-10T20:43:49.414Z,65.96
2022-11-10T20:46:40.372Z,66.26
2022-11-10T20:49:05.668Z,65.88
2022-11-10T20:51:32.112Z,66.07
2022-11-10T20:54:00.789Z,66.01
2022-11-10T20:56:29.979Z,65.99
2022-11-10T20:58:57.530Z,65.78
2022-11-10T21:01:24.863Z,65.65
2022-11-10T21:03:51.690Z,65.51
2022-11-10T21:06:18.465Z,65.68
2022-11-10T21:08:45.109Z,65.82
2022-11-10T21:11:32.643Z,65.68
2022-11-10T21:13:59.571Z,65.84
2022-11-10T21:16:25.991Z,65.74
2022-11-10T21:18:55.892Z,65.82
2022-11-10T21:21:33.901Z,65.91
2022-11-10T21:24:04.792Z,65.77
2022-11-10T21:26:34.037Z,65.82
2022-11-10T21:29:01.512Z,65.33
2022-11-10T21:31:29.976Z,65.49
2022-11-10T21:34:00.258Z,65.50
2022-11-10T21:36:29.270Z,65.36
2022-11-10T21:38:57.252Z,65.57
2022-11-10T21:41:24.011Z,65.59
2022-11-10T21:43:50.971Z,65.63
2022-11-10T21:46:18.066Z,65.71
2022-11-10T21:48:44.760Z,65.74
2022-11-10T21:51:12.364Z,65.43
2022-11-10T21:53:42.310Z,65.50
2022-11-10T21:56:10.935Z,65.69
2022-11-10T21:58:37.686Z,65.56
2022-11-10T22:01:13.164Z,65.93
2022-11-10T22:03:40.369Z,65.49
2022-11-10T22:06:10.029Z,65.55
2022-11-10T22:08:38.035Z,65.75
2022-11-10T22:11:24.074Z,65.53
2022-11-10T22:14:08.717Z,65.73
2022-11-10T22:17:02.521Z,65.79
2022-11-10T22:19:29.028Z,65.71
2022-11-10T22:21:57.361Z,65.74
2022-11-10T22:24:27.615Z,65.97
2022-11-10T22:27:02.469Z,66.46
2022-11-10T22:29:33.544Z,66.02
2022-11-10T22:32:00.985Z,66.08
2022-11-10T22:34:27.723Z,66.26
2022-11-10T22:36:59.229Z,66.44
2022-11-10T22:39:45.587Z,66.52
2022-11-10T22:42:30.811Z,66.52
2022-11-10T22:44:57.231Z,66.75
2022-11-10T22:47:23.728Z,66.83
2022-11-10T22:49:50.119Z,66.84
2022-11-10T22:52:16.546Z,66.93
2022-11-10T22:54:42.986Z,67.10
2022-11-10T22:57:09.396Z,67.06
2022-11-10T22:59:35.843Z,67.42
2022-11-10T23:02:02.361Z,67.23
2022-11-10T23:04:29.043Z,67.41
2022-11-10T23:06:55.531Z,67.40
2022-11-10T23:09:22.024Z,67.73
2022-11-10T23:11:48.526Z,67.65
2022-11-10T23:14:15.131Z,67.60
2022-11-10T23:16:41.526Z,67.71
2022-11-10T23:19:10.330Z,68.12
2022-11-10T23:21:36.820Z,67.96
2022-11-10T23:24:03.436Z,67.93
2022-11-10T23:26:30.231Z,68.11
2022-11-10T23:28:56.825Z,68.12
2022-11-10T23:31:28.357Z,68.32
2022-11-10T23:33:56.440Z,68.17
2022-11-10T23:36:24.859Z,68.23
2022-11-10T23:38:52.059Z,68.27
2022-11-10T23:41:20.710Z,68.52
2022-11-10T23:43:47.606Z,68.34
2022-11-10T23:46:14.073Z,68.59
2022-11-10T23:48:40.920Z,68.53
2022-11-10T23:51:10.073Z,68.96
2022-11-10T23:53:36.660Z,68.90
2022-11-10T23:56:06.190Z,68.90
2022-11-10T23:58:32.676Z,68.64
